createdAt,value
2019-02-21T00:02:17.115Z,13.87
2019-02-21T00:04:48.997Z,14.60
2019-02-21T00:07:21.888Z,13.50
2019-02-21T00:09:53.849Z,13.57
2019-02-21T00:12:26.062Z,12.60
2019-02-21T00:14:57.563Z,13.93
2019-02-21T00:17:29.302Z,14.33
2019-02-21T00:20:01.172Z,14.77
2019-02-21T00:22:33.046Z,13.73
2019-02-21T00:25:04.933Z,13.30
2019-02-21T00:27:36.764Z,13.03
2019-02-21T00:30:08.610Z,12.60
2019-02-21T00:32:40.510Z,13.03
2019-02-21T00:35:12.339Z,13.63
2019-02-21T00:37:44.148Z,13.93
2019-02-21T00:40:16.034Z,13.07
2019-02-21T00:42:47.970Z,13.83
2019-02-21T00:45:19.946Z,13.60
2019-02-21T00:47:51.903Z,13.10
2019-02-21T00:50:23.799Z,13.57
2019-02-21T00:52:55.679Z,13.00
2019-02-21T00:55:27.978Z,14.17
2019-02-21T00:58:01.114Z,12.90
2019-02-21T01:00:32.996Z,13.33
2019-02-21T01:03:05.135Z,13.33
2019-02-21T01:05:37.017Z,12.87
2019-02-21T01:08:09.238Z,14.10
2019-02-21T01:10:41.158Z,13.70
2019-02-21T01:13:14.514Z,12.73
2019-02-21T01:15:46.450Z,13.10
2019-02-21T01:18:24.649Z,13.33
2019-02-21T01:20:56.466Z,12.33
2019-02-21T01:23:30.204Z,12.43
2019-02-21T01:26:02.010Z,12.23
2019-02-21T01:28:33.909Z,12.60
2019-02-21T01:31:05.922Z,13.67
2019-02-21T01:33:37.814Z,13.67
2019-02-21T01:36:09.710Z,13.63
2019-02-21T01:38:41.680Z,13.17
2019-02-21T01:41:15.107Z,13.97
2019-02-21T01:43:47.026Z,13.63
2019-02-21T01:46:18.910Z,13.63
2019-02-21T01:48:50.692Z,12.93
2019-02-21T01:51:22.614Z,12.50
2019-02-21T01:53:54.531Z,12.83
2019-02-21T01:56:26.402Z,12.80
2019-02-21T01:58:58.306Z,13.20
2019-02-21T02:01:30.167Z,12.40
2019-02-21T02:04:02.060Z,13.37
2019-02-21T02:06:33.976Z,13.73
2019-02-21T02:09:11.467Z,12.83
2019-02-21T02:11:43.341Z,13.80
2019-02-21T02:14:15.292Z,13.43
2019-02-21T02:16:49.730Z,13.50
2019-02-21T02:19:21.652Z,13.83
2019-02-21T02:21:53.591Z,13.37
2019-02-21T02:24:25.390Z,13.00
2019-02-21T02:26:57.311Z,13.53
2019-02-21T02:29:29.153Z,13.43
2019-02-21T02:32:01.028Z,14.17
2019-02-21T02:34:32.938Z,13.33
2019-02-21T02:37:04.875Z,13.77
2019-02-21T02:39:36.807Z,14.07
2019-02-21T02:42:10.231Z,13.77
2019-02-21T02:44:42.116Z,12.40
2019-02-21T02:47:14.037Z,13.97
2019-02-21T02:49:45.966Z,12.77
2019-02-21T02:52:17.809Z,14.33
2019-02-21T02:54:49.624Z,13.57
2019-02-21T02:57:21.606Z,12.47
2019-02-21T02:59:53.465Z,13.70
2019-02-21T03:02:25.312Z,14.43
2019-02-21T03:04:57.100Z,13.57
2019-02-21T03:07:30.010Z,13.70
2019-02-21T03:10:01.954Z,13.77
2019-02-21T03:12:35.081Z,14.30
2019-02-21T03:15:25.076Z,14.50
2019-02-21T03:17:56.846Z,14.13
2019-02-21T03:20:28.879Z,13.50
2019-02-21T03:23:00.748Z,14.47
2019-02-21T03:25:36.166Z,14.97
2019-02-21T03:28:08.039Z,13.50
2019-02-21T03:30:39.911Z,13.13
2019-02-21T03:33:18.089Z,13.77
2019-02-21T03:35:49.942Z,13.03
2019-02-21T03:38:21.809Z,12.97
2019-02-21T03:40:53.701Z,12.40
2019-02-21T03:43:25.613Z,12.57
2019-02-21T03:45:57.522Z,12.10
2019-02-21T03:48:29.399Z,12.00
2019-02-21T03:51:02.588Z,13.27
2019-02-21T03:53:36.068Z,12.83
2019-02-21T03:56:08.088Z,13.43
2019-02-21T03:58:40.047Z,13.60
2019-02-21T04:01:12.035Z,13.20
2019-02-21T04:03:43.910Z,13.40
2019-02-21T04:06:15.705Z,12.93
2019-02-21T04:08:47.617Z,13.07
2019-02-21T04:11:19.588Z,12.37
2019-02-21T04:13:51.587Z,13.63
2019-02-21T04:16:23.492Z,13.17
2019-02-21T04:18:55.363Z,12.83
2019-02-21T04:21:27.283Z,13.30
2019-02-21T04:23:59.220Z,12.73
2019-02-21T04:26:31.031Z,13.53
2019-02-21T04:29:02.946Z,13.70
2019-02-21T04:31:34.842Z,14.17
2019-02-21T04:34:06.724Z,14.87
2019-02-21T04:36:38.649Z,14.60
2019-02-21T04:39:10.575Z,14.07
2019-02-21T04:41:42.484Z,13.63
2019-02-21T04:44:14.356Z,13.47
2019-02-21T04:46:46.224Z,14.27
2019-02-21T04:49:18.089Z,14.30
2019-02-21T04:51:50.010Z,12.37
2019-02-21T04:54:21.937Z,13.77
2019-02-21T04:56:53.843Z,15.37
2019-02-21T04:59:25.831Z,13.23
2019-02-21T05:01:57.754Z,13.60
2019-02-21T05:04:29.567Z,14.20
2019-02-21T05:07:02.718Z,14.57
2019-02-21T05:09:35.724Z,13.90
2019-02-21T05:12:22.938Z,13.70
2019-02-21T05:14:55.029Z,13.67
2019-02-21T05:17:33.824Z,14.90
2019-02-21T05:20:10.659Z,14.17
2019-02-21T05:22:45.527Z,14.23
2019-02-21T05:25:19.797Z,13.40
2019-02-21T05:28:16.393Z,13.37
2019-02-21T05:30:50.126Z,14.30
2019-02-21T05:33:39.796Z,14.13
2019-02-21T05:36:42.545Z,14.17
2019-02-21T05:39:33.251Z,14.77
2019-02-21T05:42:37.519Z,15.27
2019-02-21T05:45:28.266Z,15.50
2019-02-21T05:48:29.429Z,13.60
2019-02-21T05:51:20.066Z,14.57
2019-02-21T05:57:10.378Z,13.77
2019-02-21T06:00:01.075Z,14.57
2019-02-21T06:03:10.523Z,13.70
2019-02-21T06:05:52.049Z,15.30
2019-02-21T06:08:44.165Z,14.67
2019-02-21T06:11:29.544Z,15.60
2019-02-21T06:14:35.259Z,15.87
2019-02-21T06:17:38.352Z,16.57
2019-02-21T06:20:33.762Z,16.27
2019-02-21T06:23:16.389Z,17.27
2019-02-21T06:26:10.530Z,18.10
2019-02-21T06:29:02.954Z,18.40
2019-02-21T06:31:35.079Z,17.37
2019-02-21T06:34:07.493Z,20.33
2019-02-21T06:36:40.053Z,21.53
2019-02-21T06:39:12.144Z,22.33
2019-02-21T06:41:44.474Z,20.07
2019-02-21T06:44:19.027Z,18.97
2019-02-21T06:46:53.414Z,17.33
2019-02-21T06:49:32.464Z,16.63
2019-02-21T06:52:01.311Z,16.27
2019-02-21T06:54:33.691Z,15.33
2019-02-21T06:57:05.724Z,16.83
2019-02-21T06:59:42.523Z,15.83
2019-02-21T07:02:13.624Z,16.00
2019-02-21T07:04:45.934Z,16.33
2019-02-21T07:07:17.863Z,17.30
2019-02-21T07:09:53.376Z,16.77
2019-02-21T07:12:25.642Z,15.97
2019-02-21T07:14:58.061Z,15.60
2019-02-21T07:17:30.244Z,22.60
2019-02-21T07:20:03.748Z,19.00
2019-02-21T07:22:37.606Z,17.27
2019-02-21T07:25:24.300Z,16.43
2019-02-21T07:27:59.179Z,16.87
2019-02-21T07:30:32.642Z,14.70
2019-02-21T07:33:07.440Z,16.97
2019-02-21T07:35:41.574Z,15.83
2019-02-21T07:38:17.189Z,15.90
2019-02-21T07:40:49.586Z,16.77
2019-02-21T07:43:24.709Z,16.37
2019-02-21T07:45:58.417Z,15.83
2019-02-21T07:48:30.690Z,17.50
2019-02-21T07:51:02.761Z,16.17
2019-02-21T07:53:35.975Z,15.17
2019-02-21T07:56:09.112Z,16.43
2019-02-21T07:58:41.511Z,15.40
2019-02-21T08:01:13.691Z,16.47
2019-02-21T08:03:48.509Z,15.30
2019-02-21T08:06:20.398Z,15.33
2019-02-21T08:08:52.585Z,15.67
2019-02-21T08:11:24.718Z,16.93
2019-02-21T08:13:57.381Z,15.80
2019-02-21T08:16:30.410Z,15.60
2019-02-21T08:19:02.558Z,17.80
2019-02-21T08:21:35.113Z,16.37
2019-02-21T08:24:08.625Z,17.47
2019-02-21T08:26:42.594Z,16.57
2019-02-21T08:29:14.790Z,18.13
2019-02-21T08:31:47.243Z,17.67
2019-02-21T08:34:27.560Z,17.70
2019-02-21T08:37:00.757Z,17.43
2019-02-21T08:39:33.332Z,16.80
2019-02-21T08:42:06.254Z,18.10
2019-02-21T08:44:39.339Z,18.47
2019-02-21T08:47:11.579Z,18.60
2019-02-21T08:49:43.607Z,17.83
2019-02-21T08:52:16.151Z,17.93
2019-02-21T08:54:59.588Z,17.23
2019-02-21T08:57:23.254Z,17.57
2019-02-21T08:59:57.069Z,17.77
2019-02-21T09:02:29.113Z,17.70
2019-02-21T09:05:01.586Z,20.33
2019-02-21T09:07:35.873Z,19.40
2019-02-21T09:10:09.124Z,17.27
2019-02-21T09:12:41.428Z,17.90
2019-02-21T09:15:16.071Z,17.53
2019-02-21T09:17:50.398Z,16.93
2019-02-21T09:20:22.627Z,17.23
2019-02-21T09:22:55.285Z,17.33
2019-02-21T09:25:27.531Z,17.40
2019-02-21T09:28:00.035Z,17.90
2019-02-21T09:30:32.243Z,16.67
2019-02-21T09:33:16.616Z,16.33
2019-02-21T09:35:40.668Z,15.17
2019-02-21T09:38:13.171Z,17.20
2019-02-21T09:40:45.966Z,16.43
2019-02-21T09:43:18.008Z,16.57
2019-02-21T09:45:50.660Z,16.37
2019-02-21T09:48:25.449Z,17.27
2019-02-21T09:50:58.775Z,15.73
2019-02-21T09:53:32.182Z,16.63
2019-02-21T09:56:04.399Z,16.97
2019-02-21T09:58:38.088Z,16.23
2019-02-21T10:01:10.158Z,16.80
2019-02-21T10:03:44.138Z,17.20
2019-02-21T10:06:17.927Z,17.23
2019-02-21T10:08:51.181Z,16.73
2019-02-21T10:11:24.096Z,17.27
2019-02-21T10:13:57.681Z,17.60
2019-02-21T10:16:31.123Z,17.60
2019-02-21T10:19:03.314Z,16.93
2019-02-21T10:21:35.981Z,17.23
2019-02-21T10:24:08.365Z,18.43
2019-02-21T10:26:41.306Z,18.73
2019-02-21T10:29:13.696Z,17.90
2019-02-21T10:31:45.630Z,19.03
2019-02-21T10:34:21.580Z,18.07
2019-02-21T10:36:52.569Z,17.90
2019-02-21T10:39:26.364Z,18.37
2019-02-21T10:41:59.832Z,18.27
2019-02-21T10:44:32.198Z,18.67
2019-02-21T10:47:04.212Z,18.23
2019-02-21T10:49:37.355Z,19.07
2019-02-21T10:52:09.924Z,18.93
2019-02-21T10:54:43.876Z,18.67
2019-02-21T10:57:18.861Z,19.37
2019-02-21T10:59:52.874Z,18.67
2019-02-21T11:02:25.139Z,18.80
2019-02-21T11:04:57.148Z,20.13
2019-02-21T11:07:30.313Z,19.17
2019-02-21T11:10:02.866Z,18.27
2019-02-21T11:12:35.066Z,19.67
2019-02-21T11:15:10.305Z,19.93
2019-02-21T11:17:42.467Z,19.80
2019-02-21T11:20:17.142Z,19.63
2019-02-21T11:22:49.269Z,18.60
2019-02-21T11:25:22.981Z,18.93
2019-02-21T11:27:55.332Z,18.80
2019-02-21T11:30:27.251Z,19.80
2019-02-21T11:32:59.605Z,19.43
2019-02-21T11:35:33.352Z,19.13
2019-02-21T11:38:08.170Z,18.70
2019-02-21T11:40:40.566Z,17.60
2019-02-21T11:43:14.066Z,17.83
2019-02-21T11:45:53.822Z,18.60
2019-02-21T11:48:24.088Z,17.67
2019-02-21T11:50:56.127Z,17.03
2019-02-21T11:53:29.665Z,17.87
2019-02-21T11:56:03.015Z,16.90
2019-02-21T11:58:35.191Z,16.93
2019-02-21T12:01:10.404Z,16.13
2019-02-21T12:03:42.454Z,17.40
2019-02-21T12:06:15.836Z,17.67
2019-02-21T12:08:48.083Z,16.40
2019-02-21T12:11:20.536Z,16.00
2019-02-21T12:13:53.347Z,14.67
2019-02-21T12:16:24.820Z,14.63
2019-02-21T12:18:56.765Z,14.80
2019-02-21T12:21:37.962Z,14.07
2019-02-21T12:24:09.755Z,14.30
2019-02-21T12:26:41.703Z,14.50
2019-02-21T12:29:13.631Z,13.27
2019-02-21T12:31:45.452Z,13.53
2019-02-21T12:34:17.366Z,13.37
2019-02-21T12:36:49.274Z,13.23
2019-02-21T12:39:21.081Z,12.90
2019-02-21T12:41:52.955Z,12.53
2019-02-21T12:44:24.974Z,12.07
2019-02-21T12:46:56.858Z,13.03
2019-02-21T12:49:28.718Z,13.13
2019-02-21T12:52:00.647Z,12.33
2019-02-21T12:54:32.596Z,12.73
2019-02-21T12:57:04.466Z,12.40
2019-02-21T12:59:37.274Z,12.90
2019-02-21T13:02:09.169Z,12.07
2019-02-21T13:04:41.092Z,12.40
2019-02-21T13:07:12.903Z,12.50
2019-02-21T13:09:44.746Z,13.87
2019-02-21T13:12:17.632Z,13.20
2019-02-21T13:14:49.541Z,12.93
2019-02-21T13:17:21.438Z,13.70
2019-02-21T13:19:53.325Z,12.63
2019-02-21T13:22:26.115Z,12.20
2019-02-21T13:24:58.027Z,11.90
2019-02-21T13:27:29.886Z,11.80
2019-02-21T13:30:02.757Z,11.83
2019-02-21T13:32:34.742Z,11.33
2019-02-21T13:35:07.224Z,11.37
2019-02-21T13:37:39.156Z,11.03
2019-02-21T13:40:13.141Z,11.33
2019-02-21T13:42:45.137Z,12.20
2019-02-21T13:45:18.015Z,12.37
2019-02-21T13:47:50.172Z,12.63
2019-02-21T13:50:23.838Z,12.70
2019-02-21T13:52:55.524Z,12.43
2019-02-21T13:55:27.427Z,11.83
2019-02-21T13:57:59.360Z,11.93
2019-02-21T14:00:31.256Z,12.17
2019-02-21T14:03:03.165Z,12.50
2019-02-21T14:05:35.086Z,12.23
2019-02-21T14:08:06.975Z,12.40
2019-02-21T14:10:38.945Z,12.83
2019-02-21T14:13:11.905Z,11.80
2019-02-21T14:15:43.952Z,11.87
2019-02-21T14:18:24.964Z,12.20
2019-02-21T14:20:56.930Z,12.20
2019-02-21T14:23:28.670Z,11.80
2019-02-21T14:26:00.489Z,11.57
2019-02-21T14:28:32.414Z,12.10
2019-02-21T14:31:07.188Z,11.63
2019-02-21T14:33:37.989Z,11.23
2019-02-21T14:36:15.999Z,11.33
2019-02-21T14:38:43.485Z,11.70
2019-02-21T14:41:15.399Z,11.13
2019-02-21T14:43:47.269Z,13.00
2019-02-21T14:46:19.187Z,11.57
2019-02-21T14:48:51.106Z,12.50
2019-02-21T14:51:24.548Z,11.40
2019-02-21T14:53:56.481Z,11.10
2019-02-21T14:56:28.394Z,11.87
2019-02-21T14:59:01.253Z,12.00
2019-02-21T15:01:33.108Z,12.07
2019-02-21T15:04:04.975Z,12.27
2019-02-21T15:06:37.679Z,11.93
2019-02-21T15:09:09.578Z,12.33
2019-02-21T15:11:41.634Z,12.57
2019-02-21T15:14:13.638Z,12.33
2019-02-21T15:16:45.586Z,11.93
2019-02-21T15:19:17.519Z,14.67
2019-02-21T15:21:49.402Z,12.67
2019-02-21T15:24:21.598Z,12.63
2019-02-21T15:26:54.489Z,12.63
2019-02-21T15:29:26.312Z,12.83
2019-02-21T15:31:58.134Z,12.17
2019-02-21T15:34:30.062Z,12.30
2019-02-21T15:37:01.931Z,12.60
2019-02-21T15:39:33.718Z,12.93
2019-02-21T15:42:05.726Z,12.80
2019-02-21T15:44:37.684Z,12.63
2019-02-21T15:47:09.607Z,13.37
2019-02-21T15:49:41.622Z,13.00
2019-02-21T15:52:21.878Z,12.53
2019-02-21T15:54:46.955Z,13.33
2019-02-21T15:57:18.835Z,14.53
2019-02-21T15:59:50.708Z,14.83
2019-02-21T16:02:22.617Z,13.37
2019-02-21T16:04:54.497Z,14.07
2019-02-21T16:07:26.356Z,14.07
2019-02-21T16:09:58.220Z,14.47
2019-02-21T16:12:31.683Z,14.80
2019-02-21T16:15:04.989Z,15.67
2019-02-21T16:17:44.698Z,13.47
2019-02-21T16:20:17.755Z,13.97
2019-02-21T16:22:52.060Z,14.27
2019-02-21T16:25:23.908Z,14.57
2019-02-21T16:27:55.887Z,13.53
2019-02-21T16:30:27.910Z,14.90
2019-02-21T16:32:59.743Z,15.03
2019-02-21T16:35:31.557Z,15.17
2019-02-21T16:38:03.892Z,15.77
2019-02-21T16:40:35.812Z,15.27
2019-02-21T16:43:07.727Z,15.07
2019-02-21T16:45:46.396Z,16.53
2019-02-21T16:48:14.221Z,15.50
2019-02-21T16:50:48.389Z,14.80
2019-02-21T16:53:19.607Z,15.33
2019-02-21T16:55:51.471Z,14.97
2019-02-21T16:58:23.316Z,14.70
2019-02-21T17:00:56.840Z,15.53
2019-02-21T17:03:43.504Z,15.33
2019-02-21T17:06:15.530Z,16.07
2019-02-21T17:08:47.672Z,15.40
2019-02-21T17:11:19.634Z,15.33
2019-02-21T17:13:51.572Z,14.87
2019-02-21T17:16:23.557Z,16.10
2019-02-21T17:18:56.117Z,16.23
2019-02-21T17:21:29.482Z,15.40
2019-02-21T17:24:01.433Z,16.67
2019-02-21T17:26:33.490Z,15.90
2019-02-21T17:29:05.409Z,15.77
2019-02-21T17:31:37.391Z,16.37
2019-02-21T17:34:21.220Z,15.03
2019-02-21T17:36:53.155Z,14.87
2019-02-21T17:39:26.212Z,15.20
2019-02-21T17:41:58.143Z,15.47
2019-02-21T17:44:31.862Z,14.87
2019-02-21T17:47:03.583Z,16.67
2019-02-21T17:49:37.032Z,15.20
2019-02-21T17:52:08.928Z,15.93
2019-02-21T17:54:41.182Z,16.17
2019-02-21T17:57:31.817Z,16.10
2019-02-21T18:00:11.198Z,16.63
2019-02-21T18:02:43.648Z,17.00
2019-02-21T18:05:22.993Z,16.80
2019-02-21T18:07:58.138Z,16.80
2019-02-21T18:10:30.220Z,16.70
2019-02-21T18:13:03.200Z,16.17
2019-02-21T18:15:35.020Z,18.03
2019-02-21T18:18:08.156Z,17.17
2019-02-21T18:20:40.073Z,16.13
2019-02-21T18:23:12.550Z,16.63
2019-02-21T18:25:48.143Z,16.67
2019-02-21T18:28:20.232Z,17.77
2019-02-21T18:30:52.100Z,19.30
2019-02-21T18:33:24.035Z,17.60
2019-02-21T18:35:55.990Z,16.50
2019-02-21T18:38:27.885Z,16.50
2019-02-21T18:40:59.552Z,17.33
2019-02-21T18:43:32.042Z,17.10
2019-02-21T18:46:03.838Z,16.57
2019-02-21T18:48:35.714Z,18.80
2019-02-21T18:51:07.610Z,18.03
2019-02-21T18:53:39.548Z,17.17
2019-02-21T18:56:12.635Z,18.23
2019-02-21T18:58:44.671Z,18.20
2019-02-21T19:01:22.061Z,19.23
2019-02-21T19:03:53.921Z,18.90
2019-02-21T19:06:25.898Z,18.47
2019-02-21T19:08:57.855Z,19.40
2019-02-21T19:11:29.774Z,18.80
2019-02-21T19:14:01.627Z,18.80
2019-02-21T19:16:33.525Z,19.17
2019-02-21T19:19:05.446Z,20.57
2019-02-21T19:21:37.229Z,20.03
2019-02-21T19:24:09.057Z,19.97
2019-02-21T19:26:41.101Z,19.73
2019-02-21T19:29:30.417Z,20.07
2019-02-21T19:32:02.264Z,19.27
2019-02-21T19:34:34.131Z,19.73
2019-02-21T19:37:06.126Z,19.70
2019-02-21T19:39:38.131Z,20.67
2019-02-21T19:42:10.025Z,19.90
2019-02-21T19:44:42.127Z,19.90
2019-02-21T19:47:20.530Z,20.10
2019-02-21T19:49:52.438Z,21.10
2019-02-21T19:52:24.334Z,20.60
2019-02-21T19:54:56.422Z,20.23
2019-02-21T19:57:29.289Z,20.83
2019-02-21T20:00:01.165Z,21.07
2019-02-21T20:02:34.610Z,21.80
2019-02-21T20:05:07.580Z,21.37
2019-02-21T20:07:39.610Z,22.03
2019-02-21T20:10:11.578Z,21.47
2019-02-21T20:12:43.410Z,21.77
2019-02-21T20:15:15.281Z,22.53
2019-02-21T20:17:47.193Z,22.17
2019-02-21T20:20:19.343Z,21.90
2019-02-21T20:22:51.243Z,21.10
2019-02-21T20:25:23.183Z,20.97
2019-02-21T20:27:54.994Z,20.67
2019-02-21T20:30:26.919Z,22.83
2019-02-21T20:32:58.891Z,21.63
2019-02-21T20:35:30.730Z,21.30
2019-02-21T20:38:02.683Z,22.20
2019-02-21T20:40:34.658Z,22.90
2019-02-21T20:43:06.524Z,23.03
2019-02-21T20:45:38.328Z,23.10
2019-02-21T20:48:10.221Z,22.33
2019-02-21T20:50:42.099Z,22.53
2019-02-21T20:53:14.025Z,23.57
2019-02-21T20:55:45.876Z,23.17
2019-02-21T20:58:18.631Z,23.20
2019-02-21T21:00:50.494Z,23.07
2019-02-21T21:03:24.149Z,23.53
2019-02-21T21:05:56.054Z,23.07
2019-02-21T21:08:27.923Z,23.70
2019-02-21T21:10:59.820Z,23.07
2019-02-21T21:13:31.658Z,24.40
2019-02-21T21:16:03.478Z,24.73
2019-02-21T21:18:35.374Z,23.20
2019-02-21T21:21:07.176Z,23.73
2019-02-21T21:23:39.123Z,23.90
2019-02-21T21:26:11.237Z,23.03
2019-02-21T21:28:43.149Z,23.67
2019-02-21T21:31:15.393Z,23.57
2019-02-21T21:33:47.312Z,23.67
2019-02-21T21:36:19.233Z,22.80
2019-02-21T21:38:54.010Z,22.83
2019-02-21T21:41:24.574Z,24.20
2019-02-21T21:43:56.501Z,23.90
2019-02-21T21:46:28.313Z,24.63
2019-02-21T21:49:00.192Z,24.93
2019-02-21T21:51:33.996Z,24.23
2019-02-21T21:54:05.583Z,22.83
2019-02-21T21:56:37.516Z,23.20
2019-02-21T21:59:09.402Z,23.60
2019-02-21T22:01:42.234Z,24.43
2019-02-21T22:04:14.067Z,23.80
2019-02-21T22:06:45.913Z,22.80
2019-02-21T22:09:20.534Z,23.47
2019-02-21T22:11:52.440Z,23.10
2019-02-21T22:14:24.296Z,21.47
2019-02-21T22:16:57.268Z,22.20
2019-02-21T22:19:29.161Z,22.77
2019-02-21T22:22:00.958Z,21.43
2019-02-21T22:24:32.829Z,21.83
2019-02-21T22:27:04.740Z,21.17
2019-02-21T22:29:36.591Z,21.63
2019-02-21T22:32:08.470Z,21.20
2019-02-21T22:34:40.349Z,22.03
2019-02-21T22:37:12.160Z,21.23
2019-02-21T22:39:44.044Z,20.67
2019-02-21T22:42:15.838Z,20.33
2019-02-21T22:44:47.680Z,20.47
2019-02-21T22:47:19.555Z,20.60
2019-02-21T22:49:51.416Z,21.47
2019-02-21T22:52:23.202Z,20.73
2019-02-21T22:54:55.137Z,20.73
2019-02-21T22:57:26.886Z,20.80
2019-02-21T22:59:58.770Z,21.93
2019-02-21T23:02:32.565Z,20.80
2019-02-21T23:05:42.995Z,21.00
2019-02-21T23:08:47.383Z,19.63
2019-02-21T23:11:19.218Z,19.97
2019-02-21T23:13:51.915Z,21.00
2019-02-21T23:16:24.291Z,21.63
2019-02-21T23:18:56.182Z,21.17
2019-02-21T23:21:28.139Z,21.63
2019-02-21T23:24:00.042Z,22.10
2019-02-21T23:26:31.920Z,20.87
2019-02-21T23:29:03.873Z,21.87
2019-02-21T23:31:35.749Z,22.70
2019-02-21T23:34:10.590Z,22.13
2019-02-21T23:36:42.490Z,22.77
2019-02-21T23:39:14.324Z,22.43
2019-02-21T23:41:46.203Z,22.13
2019-02-21T23:44:17.978Z,22.13
2019-02-21T23:46:49.791Z,22.47
2019-02-21T23:49:21.571Z,22.60
2019-02-21T23:51:53.654Z,22.67
2019-02-21T23:54:25.554Z,22.70
2019-02-21T23:56:57.444Z,21.63
2019-02-21T23:59:29.774Z,23.03
